Time;durP1;ratioP1;P1;durP2;ratioP2;P2;SDS_P1;SDS_P2;PMS_P1;PMS_P2;Temp;Humidity;BMP_temperature;BMP_pressure;BME280_temperature;BME280_humidity;BME280_pressure;Samples;Min_cycle;Max_cycle;Signal;HPM_P1;HPM_P2
2022/12/27 00:01:19;;;;;;;17.27;2.72;;;;;;;11.68;100.00;98476.28;5029040;28;20645;-54
2022/12/27 00:03:45;;;;;;;17.85;2.60;;;;;;;10.10;100.00;98482.69;5032942;28;20029;-55
2022/12/27 00:06:14;;;;;;;21.20;3.08;;;;;;;10.95;100.00;98491.78;5028437;28;20534;-55
2022/12/27 00:08:40;;;;;;;22.33;3.35;;;;;;;11.55;100.00;98488.44;5029301;28;20499;-56
2022/12/27 00:11:11;;;;;;;17.38;2.92;;;;;;;10.49;100.00;98500.28;5027241;28;20204;-56
2022/12/27 00:13:37;;;;;;;26.13;3.30;;;;;;;11.15;100.00;98497.06;5029606;28;20628;-55
2022/12/27 00:16:11;;;;;;;22.67;3.08;;;;;;;11.45;100.00;98497.13;5029350;28;20037;-54
2022/12/27 00:18:38;;;;;;;30.02;3.75;;;;;;;11.76;100.00;98504.94;5026644;28;20025;-53
2022/12/27 00:21:05;;;;;;;19.52;2.65;;;;;;;11.09;100.00;98501.41;5030114;28;20029;-54
2022/12/27 00:23:34;;;;;;;26.45;3.53;;;;;;;10.65;100.00;98511.66;5028702;28;20108;-53
2022/12/27 00:26:01;;;;;;;22.35;3.03;;;;;;;10.68;100.00;98514.25;5043284;28;20037;-54
2022/12/27 00:28:30;;;;;;;21.92;3.15;;;;;;;11.80;100.00;98517.13;5028940;28;20037;-55
2022/12/27 00:30:55;;;;;;;19.15;3.03;;;;;;;11.74;100.00;98519.72;5028136;28;20041;-56
2022/12/27 00:33:21;;;;;;;14.95;2.28;;;;;;;10.79;100.00;98520.38;5028645;28;20025;-54
2022/12/27 00:35:46;;;;;;;28.67;3.75;;;;;;;10.38;100.00;98527.06;5029104;28;20198;-56
2022/12/27 00:38:11;;;;;;;21.63;2.75;;;;;;;10.31;100.00;98525.28;5032045;28;20718;-53
2022/12/27 00:40:41;;;;;;;18.90;2.70;;;;;;;10.85;100.00;98532.56;5025724;28;20080;-55
2022/12/27 00:43:06;;;;;;;20.55;2.95;;;;;;;11.19;100.00;98539.59;5030147;28;20498;-55
2022/12/27 00:45:32;;;;;;;22.73;3.33;;;;;;;10.45;100.00;98542.72;5030775;28;20082;-54
2022/12/27 00:47:57;;;;;;;27.17;3.42;;;;;;;10.40;100.00;98548.75;5029920;28;20033;-54
2022/12/27 00:50:22;;;;;;;22.33;2.92;;;;;;;9.94;100.00;98551.88;5029207;28;20083;-54
2022/12/27 00:52:48;;;;;;;21.80;3.13;;;;;;;10.47;100.00;98561.84;5028655;28;20025;-54
2022/12/27 00:55:14;;;;;;;19.13;3.17;;;;;;;12.43;100.00;98562.28;5031157;28;20025;-55
2022/12/27 00:57:39;;;;;;;20.27;3.00;;;;;;;12.06;100.00;98557.97;5029417;28;20674;-54
2022/12/27 01:00:05;;;;;;;30.50;3.90;;;;;;;11.75;100.00;98578.78;5029201;28;20477;-54
2022/12/27 01:02:31;;;;;;;22.25;3.15;;;;;;;10.61;100.00;98585.34;5029100;28;20970;-54
2022/12/27 01:04:56;;;;;;;27.15;3.58;;;;;;;9.28;100.00;98589.31;5029553;28;20052;-54
2022/12/27 01:07:22;;;;;;;20.65;3.00;;;;;;;10.28;100.00;98591.13;5029929;28;20069;-56
2022/12/27 01:09:48;;;;;;;26.42;3.70;;;;;;;10.58;100.00;98609.56;5030149;28;20090;-54
2022/12/27 01:12:13;;;;;;;24.67;3.45;;;;;;;9.74;100.00;98616.66;5029057;28;20041;-56
2022/12/27 01:14:39;;;;;;;22.35;3.13;;;;;;;10.43;100.00;98620.69;5030460;28;20040;-56
2022/12/27 01:17:04;;;;;;;27.70;3.47;;;;;;;10.75;100.00;98627.91;5026309;28;20040;-56
2022/12/27 01:19:30;;;;;;;21.30;3.15;;;;;;;10.19;100.00;98624.88;5032241;28;20024;-56
2022/12/27 01:21:55;;;;;;;20.35;2.85;;;;;;;9.15;100.00;98626.38;5030144;28;20041;-56
2022/12/27 01:24:20;;;;;;;25.77;3.45;;;;;;;7.86;100.00;98639.09;5027387;28;20026;-53
2022/12/27 01:26:46;;;;;;;23.20;3.10;;;;;;;8.65;100.00;98651.66;5028742;28;20055;-54
2022/12/27 01:29:11;;;;;;;23.52;3.03;;;;;;;8.78;100.00;98663.06;5029414;28;20057;-54
2022/12/27 01:31:37;;;;;;;22.80;3.30;;;;;;;8.10;100.00;98673.19;5026615;28;20099;-53
2022/12/27 01:34:03;;;;;;;22.30;2.97;;;;;;;8.06;100.00;98683.47;5027482;28;20037;-55
2022/12/27 01:36:30;;;;;;;30.63;3.67;;;;;;;6.87;100.00;98690.59;5029198;28;20041;-54
2022/12/27 01:38:57;;;;;;;25.17;3.10;;;;;;;6.77;100.00;98694.69;5029913;28;20086;-53
2022/12/27 01:44:33;;;;;;;24.45;3.03;;;;;;;7.57;100.00;98698.97;5030757;28;21030;-54
2022/12/27 01:46:59;;;;;;;27.25;3.13;;;;;;;8.39;100.00;98702.19;5028037;28;20033;-55
2022/12/27 01:49:25;;;;;;;26.70;3.45;;;;;;;7.92;100.00;98710.88;5030808;28;20079;-53
2022/12/27 01:51:50;;;;;;;21.23;2.90;;;;;;;7.63;100.00;98719.81;5028513;28;20060;-55
2022/12/27 01:54:16;;;;;;;23.65;2.88;;;;;;;6.87;100.00;98724.19;5030207;28;20898;-56
2022/12/27 01:56:41;;;;;;;32.35;3.70;;;;;;;6.76;100.00;98731.72;5029119;28;20038;-54
2022/12/27 01:59:08;;;;;;;23.52;2.90;;;;;;;6.56;100.00;98730.34;5029451;28;20362;-53
2022/12/27 02:01:41;;;;;;;33.90;3.95;;;;;;;6.84;100.00;98734.50;5026939;28;20041;-55
2022/12/27 02:04:13;;;;;;;29.52;3.50;;;;;;;5.85;100.00;98736.28;5025349;28;20033;-55
2022/12/27 02:06:39;;;;;;;38.83;4.05;;;;;;;5.91;100.00;98755.34;5026602;28;20124;-54
2022/12/27 02:09:20;;;;;;;25.10;3.17;;;;;;;5.72;100.00;98752.25;5028585;28;20170;-53
2022/12/27 02:11:50;;;;;;;31.15;3.67;;;;;;;6.06;100.00;98750.66;5025653;28;20102;-53
2022/12/27 02:14:42;;;;;;;23.33;3.05;;;;;;;6.07;100.00;98742.06;5028322;28;20029;-56
2022/12/27 02:17:15;;;;;;;29.55;3.42;;;;;;;6.75;100.00;98744.59;5029554;28;20446;-53
2022/12/27 02:19:40;;;;;;;30.00;3.38;;;;;;;6.88;100.00;98748.38;5027092;28;20029;-54
2022/12/27 02:22:08;;;;;;;26.73;3.30;;;;;;;7.66;100.00;98756.13;5027203;28;20063;-55
2022/12/27 02:24:56;;;;;;;28.02;3.40;;;;;;;6.95;100.00;98747.69;5030370;28;20474;-53
2022/12/27 02:27:27;;;;;;;25.05;2.88;;;;;;;6.51;100.00;98753.50;5028479;28;20041;-53
2022/12/27 02:29:58;;;;;;;39.13;4.22;;;;;;;5.90;100.00;98751.88;5028242;28;20033;-55
2022/12/27 02:32:26;;;;;;;18.45;2.55;;;;;;;6.28;100.00;98756.38;5027639;28;20033;-55
2022/12/27 02:35:07;;;;;;;23.35;3.22;;;;;;;6.15;100.00;98772.34;5027768;28;20059;-54
2022/12/27 02:37:43;;;;;;;23.42;2.97;;;;;;;5.34;100.00;98774.38;5027246;28;20067;-53
2022/12/27 02:55:14;;;;;;;31.80;3.72;;;;;;;3.71;100.00;98808.47;5032802;28;20155;-55
2022/12/27 02:57:45;;;;;;;26.70;3.25;;;;;;;3.45;100.00;98807.50;5032009;28;20270;-55
2022/12/27 03:03:23;;;;;;;30.35;3.50;;;;;;;3.27;100.00;98807.66;5031189;28;20090;-56
2022/12/27 03:15:53;;;;;;;29.43;3.30;;;;;;;2.72;100.00;98816.63;5031776;28;20067;-54
2022/12/27 03:17:47;;;;;;;41.13;4.05;;;;;;;2.15;100.00;98832.19;5031991;28;20052;-54
2022/12/27 03:25:50;;;;;;;32.65;3.58;;;;;;;2.01;100.00;98837.56;5028475;28;20196;-54
2022/12/27 03:34:30;;;;;;;31.50;3.67;;;;;;;1.47;100.00;98846.28;5032726;28;20152;-53
2022/12/27 03:39:43;;;;;;;50.50;4.88;;;;;;;1.29;100.00;98856.53;5029309;28;20044;-54
2022/12/27 03:45:00;;;;;;;54.03;5.45;;;;;;;1.05;100.00;98867.38;5029898;28;20056;-55
2022/12/27 03:47:37;;;;;;;35.00;3.90;;;;;;;0.94;100.00;98859.16;5030159;28;20033;-54
2022/12/27 03:50:14;;;;;;;30.17;3.47;;;;;;;0.80;100.00;98867.81;5031555;28;20029;-54
2022/12/27 03:52:53;;;;;;;34.03;3.83;;;;;;;0.73;100.00;98875.22;5029831;28;20076;-53
2022/12/27 03:55:19;;;;;;;29.55;3.53;;;;;;;0.68;100.00;98873.22;5030582;28;20025;-53
2022/12/27 03:57:44;;;;;;;34.47;3.80;;;;;;;0.60;100.00;98883.09;5028994;28;20653;-54
2022/12/27 04:00:10;;;;;;;31.10;3.25;;;;;;;0.69;100.00;98880.09;5031291;28;20399;-53
2022/12/27 04:02:36;;;;;;;29.70;3.65;;;;;;;0.82;100.00;98882.47;5028872;28;20032;-53
2022/12/27 04:05:01;;;;;;;39.50;4.50;;;;;;;0.78;100.00;98885.72;5029563;28;20032;-58
2022/12/27 04:07:27;;;;;;;27.55;3.40;;;;;;;0.66;100.00;98878.25;5028959;28;20672;-55
2022/12/27 04:34:45;;;;;;;36.65;3.67;;;;;;;0.85;100.00;98881.78;5030337;28;20068;-53
2022/12/27 04:37:16;;;;;;;27.23;3.30;;;;;;;0.81;100.00;98877.28;5030192;28;20131;-54
2022/12/27 04:54:55;;;;;;;33.53;3.38;;;;;;;0.85;100.00;98885.19;5030517;28;20033;-53
2022/12/27 04:56:15;;;;;;;21.75;3.13;;;;;;;1.31;100.00;98895.94;5029398;28;20060;-56
2022/12/27 05:02:01;;;;;;;40.25;3.97;;;;;;;1.28;100.00;98891.56;5030163;28;21150;-56
2022/12/27 05:04:10;;;;;;;29.13;3.55;;;;;;;1.17;100.00;98906.41;5031161;28;20047;-56
2022/12/27 05:06:36;;;;;;;29.35;3.58;;;;;;;1.16;100.00;98919.16;5027461;28;20033;-55
2022/12/27 05:14:29;;;;;;;33.75;3.63;;;;;;;0.72;100.00;98919.56;5028121;28;20043;-53
2022/12/27 05:16:54;;;;;;;46.03;4.43;;;;;;;0.68;100.00;98917.66;5029361;28;20124;-53
2022/12/27 05:19:19;;;;;;;31.23;3.83;;;;;;;0.69;100.00;98923.63;5026120;28;20029;-54
2022/12/27 05:27:15;;;;;;;26.30;3.13;;;;;;;0.46;100.00;98936.13;5028858;28;20060;-53
2022/12/27 05:29:40;;;;;;;34.88;3.85;;;;;;;0.44;100.00;98927.50;5028527;28;20076;-53
2022/12/27 05:32:06;;;;;;;41.53;4.18;;;;;;;0.46;100.00;98924.22;5028108;28;20546;-53
2022/12/27 05:34:31;;;;;;;34.47;3.88;;;;;;;0.54;100.00;98919.50;5029094;28;20047;-53
2022/12/27 05:36:56;;;;;;;39.42;4.45;;;;;;;0.61;100.00;98926.69;5027417;28;20041;-53
2022/12/27 05:39:22;;;;;;;24.67;3.15;;;;;;;0.74;100.00;98917.09;5029506;28;20036;-54
2022/12/27 05:41:47;;;;;;;28.95;3.35;;;;;;;0.75;100.00;98917.13;5029700;28;20094;-55
2022/12/27 05:44:12;;;;;;;39.05;4.05;;;;;;;0.73;100.00;98917.88;5029208;28;20029;-53
2022/12/27 05:46:38;;;;;;;34.38;3.83;;;;;;;0.62;100.00;98918.22;5028057;28;20477;-53
2022/12/27 05:49:03;;;;;;;34.00;3.88;;;;;;;0.63;100.00;98912.28;5028429;28;20052;-54
2022/12/27 05:51:28;;;;;;;30.40;3.50;;;;;;;0.83;100.00;98921.78;5027818;28;20184;-54
2022/12/27 05:53:54;;;;;;;36.28;3.70;;;;;;;0.93;100.00;98926.59;5029128;28;20017;-56
2022/12/27 05:56:20;;;;;;;41.13;3.92;;;;;;;0.87;100.00;98921.13;5028513;28;20044;-54
2022/12/27 05:58:46;;;;;;;26.92;3.53;;;;;;;0.70;100.00;98925.41;5028613;28;20025;-53
2022/12/27 06:01:16;;;;;;;33.42;3.45;;;;;;;0.55;100.00;98930.63;5026506;28;20037;-54
2022/12/27 06:03:42;;;;;;;24.77;3.25;;;;;;;0.44;100.00;98942.88;5028431;28;20033;-54
2022/12/27 06:06:08;;;;;;;25.13;3.38;;;;;;;0.35;100.00;98943.25;5026228;28;20052;-54
2022/12/27 06:08:34;;;;;;;33.83;3.85;;;;;;;0.35;100.00;98936.47;5029379;28;20486;-54
2022/12/27 06:11:06;;;;;;;33.47;3.90;;;;;;;0.24;100.00;98945.22;5030725;28;20042;-54
2022/12/27 06:13:31;;;;;;;29.33;3.72;;;;;;;0.08;100.00;98952.06;5027794;28;20451;-54
2022/12/27 06:15:59;;;;;;;36.28;4.00;;;;;;;-0.04;100.00;98951.44;5027419;28;20511;-54
2022/12/27 06:18:24;;;;;;;37.45;4.10;;;;;;;-0.15;100.00;98954.28;5029093;28;20494;-53
2022/12/27 06:20:49;;;;;;;34.60;3.80;;;;;;;-0.16;100.00;98954.19;5026694;28;20494;-53
2022/12/27 06:23:15;;;;;;;26.27;3.55;;;;;;;-0.15;100.00;98945.75;5030240;28;20140;-54
2022/12/27 06:25:40;;;;;;;37.55;4.38;;;;;;;-0.12;100.00;98947.59;5028321;28;20029;-57
2022/12/27 06:28:06;;;;;;;44.65;5.32;;;;;;;-0.17;100.00;98953.31;5029746;28;20033;-54
2022/12/27 06:30:31;;;;;;;46.58;6.55;;;;;;;-0.08;100.00;98950.38;5026542;28;20033;-56
2022/12/27 06:32:56;;;;;;;42.75;5.45;;;;;;;-0.10;100.00;98953.66;5028029;28;20950;-54
2022/12/27 06:35:22;;;;;;;26.20;4.32;;;;;;;-0.14;100.00;98947.50;5027800;28;20040;-53
2022/12/27 06:37:47;;;;;;;27.00;4.57;;;;;;;0.00;100.00;98950.81;5030591;28;20067;-55
2022/12/27 06:40:12;;;;;;;30.15;4.70;;;;;;;0.06;100.00;98943.44;5026021;28;20397;-55
2022/12/27 06:42:38;;;;;;;27.30;4.53;;;;;;;0.11;100.00;98941.16;5027301;28;20147;-55
2022/12/27 06:45:05;;;;;;;46.92;5.38;;;;;;;0.35;100.00;98956.94;5026624;28;20598;-54
2022/12/27 06:47:30;;;;;;;28.67;3.65;;;;;;;0.67;100.00;98961.09;5036523;28;20014;-52
2022/12/27 06:49:56;;;;;;;48.53;4.72;;;;;;;0.78;100.00;98968.53;5026015;28;20040;-52
2022/12/27 06:52:22;;;;;;;25.77;3.78;;;;;;;0.88;100.00;98969.88;5027649;28;20030;-52
2022/12/27 06:54:47;;;;;;;30.00;3.33;;;;;;;1.23;100.00;98966.47;5029062;28;20025;-55
2022/12/27 06:57:13;;;;;;;25.27;3.30;;;;;;;1.48;100.00;98962.56;5027970;28;20143;-53
2022/12/27 06:59:38;;;;;;;29.23;3.65;;;;;;;1.59;100.00;98960.50;5026349;28;20030;-54
2022/12/27 07:02:03;;;;;;;29.65;3.60;;;;;;;1.48;100.00;98967.69;5027047;28;20037;-55
2022/12/27 07:04:29;;;;;;;30.00;3.28;;;;;;;1.45;100.00;98976.09;5026772;28;20030;-54
2022/12/27 07:06:54;;;;;;;36.00;4.43;;;;;;;1.36;100.00;98981.66;5029312;28;20399;-53
2022/12/27 07:09:19;;;;;;;28.00;3.75;;;;;;;1.30;100.00;98986.47;5027957;28;20628;-53
2022/12/27 07:11:45;;;;;;;23.23;3.47;;;;;;;1.32;100.00;98984.84;5025275;28;20212;-53
2022/12/27 07:14:10;;;;;;;28.77;3.85;;;;;;;1.33;100.00;98990.88;5026216;28;20025;-54
2022/12/27 07:16:36;;;;;;;28.25;3.88;;;;;;;1.35;100.00;98994.38;5025432;28;20041;-54
2022/12/27 07:19:01;;;;;;;36.08;4.85;;;;;;;1.33;100.00;98981.47;5026211;28;20029;-53
2022/12/27 07:21:28;;;;;;;26.02;3.78;;;;;;;1.41;100.00;98989.56;5026376;28;20037;-54
2022/12/27 07:23:54;;;;;;;26.90;3.22;;;;;;;1.48;100.00;98990.75;5029550;28;20037;-52
2022/12/27 07:26:23;;;;;;;33.60;4.68;;;;;;;1.58;100.00;98995.53;5029889;28;20164;-52
2022/12/27 07:28:51;;;;;;;23.83;4.10;;;;;;;1.61;100.00;98995.69;5030688;28;20029;-54
2022/12/27 07:31:19;;;;;;;33.78;4.72;;;;;;;1.63;100.00;99004.31;5029419;28;20383;-52
2022/12/27 07:33:44;;;;;;;28.00;4.18;;;;;;;1.72;100.00;99010.69;5030631;28;20530;-53
2022/12/27 07:36:16;;;;;;;27.30;4.25;;;;;;;1.79;100.00;99023.03;5032324;28;20087;-53
2022/12/27 07:38:42;;;;;;;23.13;3.85;;;;;;;1.89;100.00;99008.97;5032406;28;20037;-52
2022/12/27 07:41:10;;;;;;;26.58;3.78;;;;;;;1.91;100.00;99012.47;5030204;28;21004;-54
2022/12/27 07:43:35;;;;;;;26.15;4.10;;;;;;;2.04;100.00;99019.06;5031512;28;20025;-55
2022/12/27 07:46:04;;;;;;;28.85;3.95;;;;;;;2.57;100.00;99003.50;5030634;28;20091;-52
2022/12/27 07:48:30;;;;;;;34.83;4.55;;;;;;;2.65;100.00;99004.72;5031491;28;20030;-53
2022/12/27 07:50:55;;;;;;;32.00;4.35;;;;;;;2.62;100.00;99004.59;5030889;28;20040;-53
2022/12/27 07:53:21;;;;;;;29.83;4.25;;;;;;;3.08;100.00;99010.00;5031249;28;20063;-53
2022/12/27 07:55:47;;;;;;;28.80;4.03;;;;;;;3.16;100.00;99010.31;5030600;28;20034;-53
2022/12/27 07:58:13;;;;;;;25.50;3.63;;;;;;;3.24;100.00;99012.38;5031703;28;20035;-53
2022/12/27 08:00:39;;;;;;;31.40;4.15;;;;;;;3.51;100.00;99011.81;5028759;28;20033;-53
2022/12/27 08:03:04;;;;;;;26.75;3.03;;;;;;;3.48;100.00;99011.69;5030100;28;20021;-56
2022/12/27 08:05:30;;;;;;;26.52;3.15;;;;;;;3.77;100.00;98999.13;5030876;28;20040;-53
2022/12/27 08:08:00;;;;;;;22.52;3.25;;;;;;;4.03;100.00;99001.88;5029550;28;20029;-52
2022/12/27 08:10:25;;;;;;;32.97;4.32;;;;;;;4.41;100.00;99000.69;5032468;28;20120;-53
2022/12/27 08:12:50;;;;;;;26.88;3.72;;;;;;;4.50;100.00;99000.16;5031500;28;20120;-55
2022/12/27 08:15:16;;;;;;;29.58;3.75;;;;;;;4.39;100.00;98994.63;5029842;28;20053;-55
2022/12/27 08:17:41;;;;;;;33.50;4.10;;;;;;;4.67;100.00;98998.19;5029907;28;20033;-54
2022/12/27 08:20:12;;;;;;;24.65;3.97;;;;;;;4.60;100.00;99004.81;5030609;28;20025;-54
2022/12/27 08:22:38;;;;;;;26.55;3.80;;;;;;;4.66;100.00;99004.19;5031207;28;20029;-52
2022/12/27 08:25:03;;;;;;;36.63;3.92;;;;;;;4.54;100.00;99010.63;5027212;28;20036;-53
2022/12/27 08:27:29;;;;;;;35.83;4.47;;;;;;;4.46;100.00;99009.50;5030303;28;20575;-53
2022/12/27 08:29:54;;;;;;;38.58;5.25;;;;;;;4.92;100.00;99014.56;5031248;28;20033;-55
2022/12/27 08:32:20;;;;;;;31.50;4.72;;;;;;;5.03;100.00;99015.84;5029565;28;20086;-52
2022/12/27 08:34:45;;;;;;;22.77;3.92;;;;;;;5.17;100.00;99007.69;5028909;28;20099;-53
2022/12/27 08:37:11;;;;;;;24.98;3.67;;;;;;;5.41;100.00;99010.25;5033140;28;20155;-54
2022/12/27 08:39:36;;;;;;;27.38;4.32;;;;;;;5.25;100.00;99003.69;5027903;28;20035;-53
2022/12/27 08:42:02;;;;;;;35.28;4.75;;;;;;;5.17;100.00;99005.13;5028932;28;20043;-56
2022/12/27 08:44:28;;;;;;;24.90;4.18;;;;;;;4.98;100.00;99007.06;5029362;28;20049;-55
2022/12/27 08:46:53;;;;;;;38.47;4.43;;;;;;;5.06;100.00;99010.75;5030473;28;20461;-55
2022/12/27 08:49:18;;;;;;;23.38;4.03;;;;;;;5.07;100.00;99002.22;5030419;28;20522;-53
2022/12/27 08:51:44;;;;;;;25.05;3.90;;;;;;;4.96;100.00;99008.69;5030526;28;20037;-53
2022/12/27 08:54:09;;;;;;;33.10;5.07;;;;;;;5.22;100.00;99003.56;5029284;28;20553;-53
2022/12/27 08:56:35;;;;;;;24.50;4.18;;;;;;;5.24;100.00;99007.09;5028783;28;20490;-52
2022/12/27 08:59:01;;;;;;;27.30;4.53;;;;;;;5.48;100.00;99019.06;5030078;28;20031;-54
2022/12/27 09:01:26;;;;;;;24.85;3.65;;;;;;;5.58;100.00;99023.72;5029115;28;20030;-53
2022/12/27 09:03:51;;;;;;;29.45;4.10;;;;;;;5.39;100.00;99029.06;5029595;28;20035;-53
2022/12/27 09:06:20;;;;;;;34.05;4.93;;;;;;;5.60;100.00;99036.66;5030337;28;20041;-53
2022/12/27 09:08:47;;;;;;;25.23;4.13;;;;;;;6.02;100.00;99040.63;5029203;28;20057;-52
2022/12/27 09:11:18;;;;;;;34.60;4.82;;;;;;;6.06;100.00;99029.59;5030077;28;20896;-52
2022/12/27 09:13:43;;;;;;;21.98;4.22;;;;;;;5.86;100.00;99019.47;5029833;28;20040;-53
2022/12/27 09:16:14;;;;;;;24.58;4.00;;;;;;;6.16;100.00;99033.31;5029877;28;20034;-54
2022/12/27 09:18:41;;;;;;;21.33;3.28;;;;;;;6.43;100.00;99044.47;5029396;28;20024;-53
2022/12/27 09:21:13;;;;;;;22.35;3.85;;;;;;;6.81;100.00;99047.31;5027969;28;20687;-54
2022/12/27 09:23:39;;;;;;;27.00;4.28;;;;;;;6.42;100.00;99055.63;5026983;28;20037;-53
2022/12/27 09:26:10;;;;;;;30.48;4.45;;;;;;;6.72;100.00;99052.22;5028604;28;20040;-55
2022/12/27 09:28:35;;;;;;;32.95;4.25;;;;;;;7.44;100.00;99042.13;5030008;28;20107;-55
2022/12/27 09:31:01;;;;;;;27.75;4.45;;;;;;;8.36;100.00;99031.38;5025936;28;20123;-54
2022/12/27 09:33:28;;;;;;;29.80;4.60;;;;;;;8.75;100.00;99040.00;5028881;28;20033;-55
2022/12/27 09:36:00;;;;;;;23.80;4.35;;;;;;;8.44;100.00;99047.97;5028738;28;20087;-55
2022/12/27 09:38:25;;;;;;;32.03;4.35;;;;;;;7.85;100.00;99054.38;5028716;28;20135;-56
2022/12/27 09:40:54;;;;;;;30.90;4.80;;;;;;;7.74;100.00;99053.22;5028683;28;20116;-54
2022/12/27 09:43:23;;;;;;;28.25;4.07;;;;;;;8.53;100.00;99049.03;5027819;28;20059;-54
2022/12/27 09:45:52;;;;;;;26.48;3.88;;;;;;;8.73;100.00;99063.31;5026009;28;20041;-56
2022/12/27 09:48:37;;;;;;;22.05;3.88;;;;;;;9.01;100.00;99062.16;5027930;28;20057;-56
2022/12/27 09:51:16;;;;;;;27.83;4.93;;;;;;;8.21;100.00;99061.25;5027918;28;20167;-54
2022/12/27 09:53:56;;;;;;;30.02;4.70;;;;;;;8.41;100.00;99059.97;5029842;28;20053;-55
2022/12/27 09:56:26;;;;;;;27.55;4.50;;;;;;;8.31;100.00;99061.47;5028015;28;20041;-54
2022/12/27 09:59:05;;;;;;;32.25;4.97;;;;;;;8.55;100.00;99053.44;5030559;28;20028;-55
2022/12/27 10:01:34;;;;;;;26.30;4.07;;;;;;;8.28;100.00;99056.25;5027503;28;20037;-55
2022/12/27 10:04:00;;;;;;;29.75;4.63;;;;;;;8.84;100.00;99057.50;5028084;28;20033;-56
2022/12/27 10:06:49;;;;;;;31.42;4.85;;;;;;;9.32;100.00;99060.16;5029001;28;20070;-53
2022/12/27 10:09:39;;;;;;;25.05;3.75;;;;;;;10.19;100.00;99058.13;5027131;28;20082;-57
2022/12/27 10:12:19;;;;;;;32.78;4.97;;;;;;;10.00;100.00;99050.06;5028487;28;20045;-54
2022/12/27 10:15:06;;;;;;;22.42;4.00;;;;;;;9.05;100.00;99058.78;5029676;28;20468;-56
2022/12/27 10:17:50;;;;;;;24.50;4.03;;;;;;;8.60;100.00;99056.09;5026911;28;20053;-55
2022/12/27 10:20:34;;;;;;;22.75;3.72;;;;;;;8.44;100.00;99060.94;5029582;28;20039;-53
2022/12/27 10:23:04;;;;;;;25.95;3.88;;;;;;;8.20;100.00;99063.81;5026944;28;20036;-56
2022/12/27 10:25:33;;;;;;;23.13;3.83;;;;;;;7.95;100.00;99064.09;5027596;28;20098;-55
2022/12/27 10:28:13;;;;;;;30.77;4.22;;;;;;;7.92;100.00;99057.97;5026790;28;20029;-56
2022/12/27 10:30:39;;;;;;;35.35;4.68;;;;;;;8.19;100.00;99056.88;5025871;28;20063;-56
2022/12/27 10:33:06;;;;;;;29.67;4.43;;;;;;;8.64;100.00;99050.16;5027742;28;20115;-53
2022/12/27 10:35:32;;;;;;;22.30;3.63;;;;;;;9.05;100.00;99054.44;5028489;28;20036;-53
2022/12/27 10:38:00;;;;;;;19.73;3.55;;;;;;;9.24;100.00;99057.38;5029841;28;20033;-56
2022/12/27 10:40:38;;;;;;;24.48;4.00;;;;;;;9.71;100.00;99051.34;5026824;28;20078;-55
2022/12/27 10:43:15;;;;;;;20.42;3.55;;;;;;;10.03;100.00;99039.72;5026764;28;20030;-55
2022/12/27 10:45:41;;;;;;;21.20;3.30;;;;;;;10.66;100.00;99033.72;5026293;28;20124;-55
2022/12/27 10:48:27;;;;;;;22.48;3.58;;;;;;;9.68;100.00;99035.69;5030294;28;20111;-54
2022/12/27 10:51:05;;;;;;;19.67;3.58;;;;;;;10.03;100.00;99035.38;5026124;28;20091;-53
2022/12/27 10:53:39;;;;;;;26.23;3.85;;;;;;;9.72;100.00;99036.59;5027136;28;20048;-54
2022/12/27 10:56:25;;;;;;;23.52;3.53;;;;;;;9.98;100.00;99033.59;5030952;28;20128;-55
2022/12/27 10:58:53;;;;;;;24.67;3.88;;;;;;;10.29;100.00;99031.44;5029152;28;20025;-56
2022/12/27 11:01:24;;;;;;;25.33;3.50;;;;;;;8.99;100.00;99024.06;5030237;28;20143;-55
2022/12/27 11:03:50;;;;;;;19.63;3.28;;;;;;;9.37;100.00;99032.56;5031848;28;20668;-56
2022/12/27 11:06:22;;;;;;;20.30;3.47;;;;;;;10.02;100.00;99023.25;5032420;28;20128;-56
2022/12/27 11:08:48;;;;;;;21.65;3.72;;;;;;;9.71;100.00;99027.94;5031078;28;20029;-53
2022/12/27 11:11:22;;;;;;;22.05;3.60;;;;;;;9.18;100.00;99024.44;5028944;28;20036;-54
2022/12/27 11:13:48;;;;;;;27.60;4.15;;;;;;;9.01;100.00;99028.41;5031908;28;20032;-54
2022/12/27 11:16:24;;;;;;;25.40;3.70;;;;;;;9.18;100.00;99021.84;5032096;28;20099;-56
2022/12/27 11:18:52;;;;;;;32.08;4.50;;;;;;;9.60;100.00;99029.47;5030925;28;20064;-54
2022/12/27 11:21:19;;;;;;;20.45;3.53;;;;;;;9.58;100.00;99029.44;5038509;28;20879;-55
2022/12/27 11:23:48;;;;;;;30.30;4.70;;;;;;;9.10;100.00;99023.41;5031662;28;20021;-54
2022/12/27 11:26:23;;;;;;;22.27;3.83;;;;;;;9.69;100.00;99024.44;5031454;28;20995;-55
2022/12/27 11:28:58;;;;;;;23.55;3.95;;;;;;;11.22;100.00;99016.16;5033114;28;20029;-56
2022/12/27 11:31:31;;;;;;;20.48;3.40;;;;;;;11.00;100.00;99015.91;5030457;28;20033;-56
2022/12/27 11:34:01;;;;;;;24.33;4.05;;;;;;;10.85;100.00;99011.41;5031388;28;21070;-54
2022/12/27 11:36:29;;;;;;;16.20;3.13;;;;;;;11.06;100.00;99013.38;5031753;28;20087;-54
2022/12/27 11:38:55;;;;;;;19.23;3.42;;;;;;;11.32;100.00;99004.94;5031895;28;20029;-54
2022/12/27 11:41:46;;;;;;;20.83;3.72;;;;;;;11.91;100.00;99006.34;5031939;28;20099;-54
2022/12/27 11:44:27;;;;;;;24.48;3.38;;;;;;;11.50;100.00;99005.13;5030327;28;20140;-56
2022/12/27 11:47:20;;;;;;;14.10;2.80;;;;;;;11.28;100.00;99000.56;5030552;28;20048;-53
2022/12/27 11:49:58;;;;;;;22.25;3.38;;;;;;;11.07;100.00;98991.66;5032055;28;20040;-53
2022/12/27 11:52:23;;;;;;;24.70;3.45;;;;;;;10.72;100.00;98991.28;5033333;28;20459;-56
2022/12/27 11:55:14;;;;;;;18.05;3.00;;;;;;;10.96;100.00;98988.09;5028553;28;20036;-54
2022/12/27 11:57:42;;;;;;;23.80;3.90;;;;;;;10.57;100.00;98987.63;5030706;28;20048;-53
2022/12/27 12:00:16;;;;;;;32.97;4.68;;;;;;;10.29;100.00;98985.50;5030226;28;20025;-54
2022/12/27 12:03:19;;;;;;;23.45;3.67;;;;;;;10.26;100.00;98985.47;5031542;28;20094;-55
2022/12/27 12:06:14;;;;;;;20.90;3.10;;;;;;;10.49;100.00;98979.72;5030266;28;20044;-54
2022/12/27 12:09:18;;;;;;;20.60;3.50;;;;;;;10.88;100.00;98981.94;5031380;28;20115;-54
2022/12/27 12:12:26;;;;;;;21.05;3.55;;;;;;;11.17;100.00;98986.59;4990528;28;20156;-54
2022/12/27 12:15:12;;;;;;;18.55;3.45;;;;;;;10.51;100.00;98988.41;5028824;28;20025;-54
2022/12/27 12:18:14;;;;;;;20.77;3.60;;;;;;;11.33;100.00;98991.06;5031644;28;20045;-56
2022/12/27 12:20:52;;;;;;;22.05;3.45;;;;;;;10.52;100.00;98990.19;5030937;28;20033;-54
2022/12/27 12:23:35;;;;;;;19.33;3.50;;;;;;;10.58;100.00;98991.97;5031203;28;20104;-53
2022/12/27 12:26:12;;;;;;;23.48;3.63;;;;;;;10.71;100.00;98982.59;5030074;28;20033;-56
2022/12/27 12:29:17;;;;;;;29.15;4.43;;;;;;;11.06;100.00;98991.66;5031922;28;20132;-54
2022/12/27 12:31:54;;;;;;;23.58;3.38;;;;;;;10.91;100.00;98989.78;5027448;28;20041;-54
2022/12/27 12:34:40;;;;;;;21.73;3.55;;;;;;;11.75;100.00;98985.34;5029756;28;20495;-55
2022/12/27 12:37:11;;;;;;;22.60;3.40;;;;;;;11.44;100.00;98977.28;5029148;28;20049;-52
2022/12/27 12:40:11;;;;;;;28.27;4.25;;;;;;;11.57;100.00;98976.53;5028842;28;20383;-55
2022/12/27 12:42:58;;;;;;;21.50;3.45;;;;;;;10.84;100.00;98975.78;5029116;28;20099;-57
2022/12/27 12:45:42;;;;;;;25.52;3.70;;;;;;;10.49;100.00;98982.34;5032473;28;20056;-53
2022/12/27 12:48:22;;;;;;;17.25;3.08;;;;;;;11.27;100.00;98975.41;5029694;28;20017;-56
2022/12/27 12:50:56;;;;;;;25.60;3.67;;;;;;;11.32;100.00;98991.94;5029549;28;20046;-53
2022/12/27 12:53:27;;;;;;;17.20;3.05;;;;;;;12.24;100.00;98986.59;5028807;28;20391;-56
2022/12/27 12:56:02;;;;;;;27.75;4.28;;;;;;;11.56;100.00;98977.41;5030663;28;20510;-54
2022/12/27 12:58:51;;;;;;;22.67;3.40;;;;;;;11.80;100.00;98981.03;5030538;28;20039;-54
2022/12/27 13:01:36;;;;;;;18.08;2.90;;;;;;;11.90;100.00;98976.78;5027893;28;20066;-54
2022/12/27 13:04:20;;;;;;;28.23;4.60;;;;;;;11.38;100.00;98970.28;5029675;28;20025;-54
2022/12/27 13:07:03;;;;;;;20.73;3.55;;;;;;;11.05;100.00;98972.56;5030059;28;20128;-53
2022/12/27 13:10:03;;;;;;;33.65;4.22;;;;;;;11.48;100.00;98968.63;5027496;28;20111;-55
2022/12/27 13:12:29;;;;;;;22.52;3.55;;;;;;;14.16;100.00;98980.03;5028744;28;20068;-55
2022/12/27 13:14:57;;;;;;;39.13;5.38;;;;;;;14.94;100.00;98977.16;5028029;28;20028;-54
2022/12/27 13:17:41;;;;;;;48.92;6.80;;;;;;;11.41;100.00;98979.84;5022846;28;20063;-54